Time;durP1;ratioP1;P1;durP2;ratioP2;P2;SDS_P1;SDS_P2;PMS_P1;PMS_P2;Temp;Humidity;BMP_temperature;BMP_pressure;BME280_temperature;BME280_humidity;BME280_pressure;Samples;Min_cycle;Max_cycle;Signal;HPM_P1;HPM_P2
2022/02/02 00:01:32;;;;;;;3.17;1.48;;;;;;;-148.56;100.00;61375.16;4888047;28;20035;-60
2022/02/02 00:03:59;;;;;;;3.67;1.23;;;;;;;-148.56;100.00;61375.16;4901813;28;20106;-60
2022/02/02 00:06:38;;;;;;;5.18;2.00;;;;;;;-148.56;100.00;61375.16;4920835;28;20035;-60
2022/02/02 00:09:10;;;;;;;3.47;1.40;;;;;;;-148.56;100.00;61375.16;4910881;28;20027;-61
2022/02/02 00:16:57;;;;;;;2.22;1.25;;;;;;;-148.56;100.00;61375.16;4905706;28;20042;-60
2022/02/02 00:19:35;;;;;;;4.45;1.33;;;;;;;-148.56;100.00;61375.16;4907272;28;21146;-58
2022/02/02 00:22:08;;;;;;;3.17;1.30;;;;;;;-148.56;100.00;61375.16;4907506;28;20036;-61
2022/02/02 00:27:19;;;;;;;1.75;1.05;;;;;;;-148.56;100.00;61375.16;4905223;28;20054;-63
2022/02/02 00:29:51;;;;;;;4.35;1.50;;;;;;;-148.56;100.00;61375.16;4921395;28;20055;-60
2022/02/02 00:32:46;;;;;;;2.30;1.30;;;;;;;-148.56;100.00;61375.16;4905429;28;20762;-61
2022/02/02 00:35:15;;;;;;;3.22;1.33;;;;;;;-148.56;100.00;61375.16;4906355;28;20107;-60
2022/02/02 00:37:40;;;;;;;2.70;1.25;;;;;;;-148.56;100.00;61375.16;4909633;28;20044;-61
2022/02/02 00:40:06;;;;;;;1.88;1.02;;;;;;;-148.56;100.00;61375.16;4908594;28;20039;-61
2022/02/02 00:42:32;;;;;;;2.05;1.05;;;;;;;-148.56;100.00;61375.16;4919437;28;20058;-61
2022/02/02 00:44:57;;;;;;;3.00;1.10;;;;;;;-148.56;100.00;61375.16;4924006;29;20058;-59
2022/02/02 00:47:24;;;;;;;2.28;1.00;;;;;;;-148.56;100.00;61375.16;4920208;29;20031;-60
2022/02/02 00:49:51;;;;;;;2.80;1.10;;;;;;;-148.56;100.00;61375.16;4917908;29;20114;-60
2022/02/02 00:52:17;;;;;;;1.88;0.93;;;;;;;-148.56;100.00;61375.16;4918410;28;20039;-61
2022/02/02 00:54:43;;;;;;;2.15;1.02;;;;;;;-148.56;100.00;61375.16;4917765;28;20028;-61
2022/02/02 00:57:08;;;;;;;1.85;1.00;;;;;;;-148.56;100.00;61375.16;4922662;29;20073;-61
2022/02/02 00:59:34;;;;;;;4.60;1.08;;;;;;;-148.56;100.00;61375.16;4933938;28;20035;-60
2022/02/02 01:01:59;;;;;;;2.03;1.10;;;;;;;-148.56;100.00;61375.16;4919565;29;20043;-60
2022/02/02 01:04:26;;;;;;;3.22;1.17;;;;;;;-148.56;100.00;61375.16;4921727;29;20183;-60
2022/02/02 01:09:36;;;;;;;1.83;0.80;;;;;;;-148.56;100.00;61375.16;4936662;28;20505;-61
2022/02/02 01:19:58;;;;;;;1.80;0.70;;;;;;;-148.56;100.00;61375.16;4912005;28;20031;-60
2022/02/02 01:27:46;;;;;;;1.73;0.80;;;;;;;-148.56;100.00;61375.16;4911773;28;20035;-60
2022/02/02 01:27:53;;;;;;;1.80;1.10;;;;;;;-148.56;100.00;61375.16;4909650;28;20111;-59
2022/02/02 01:30:18;;;;;;;4.00;1.08;;;;;;;-148.56;100.00;61375.16;4919987;28;20257;-60
2022/02/02 01:32:44;;;;;;;1.38;0.65;;;;;;;-148.56;100.00;61375.16;4905333;28;20035;-61
2022/02/02 01:35:15;;;;;;;2.83;0.80;;;;;;;-148.56;100.00;61375.16;4918276;28;20038;-61
2022/02/02 01:37:44;;;;;;;2.78;1.08;;;;;;;-148.56;100.00;61375.16;4916903;28;20093;-61
2022/02/02 01:40:24;;;;;;;2.63;0.82;;;;;;;-148.56;100.00;61375.16;4909887;28;20032;-57
2022/02/02 01:43:04;;;;;;;2.35;0.80;;;;;;;-148.56;100.00;61375.16;4921648;28;20031;-62
2022/02/02 01:45:37;;;;;;;1.52;0.82;;;;;;;-148.56;100.00;61375.16;4909086;28;20035;-60
2022/02/02 01:48:19;;;;;;;1.95;0.70;;;;;;;-148.56;100.00;61375.16;4910654;28;21424;-60
2022/02/02 01:55:57;;;;;;;1.15;0.73;;;;;;;-148.56;100.00;61375.16;4915946;28;20043;-59
2022/02/02 02:01:00;;;;;;;2.63;1.00;;;;;;;-148.56;100.00;61375.16;4910740;28;20050;-60
2022/02/02 02:03:25;;;;;;;1.65;0.70;;;;;;;-148.56;100.00;61375.16;4892527;28;20035;-62
2022/02/02 02:05:51;;;;;;;1.45;0.70;;;;;;;-148.56;100.00;61375.16;4909147;28;20042;-61
2022/02/02 02:08:17;;;;;;;1.42;0.80;;;;;;;-148.56;100.00;61375.16;4909236;28;20717;-61
2022/02/02 02:10:42;;;;;;;2.00;0.70;;;;;;;-148.56;100.00;61375.16;4912801;28;20063;-61
2022/02/02 02:13:13;;;;;;;2.10;0.93;;;;;;;-148.56;100.00;61375.16;4908767;28;20846;-61
2022/02/02 02:15:41;;;;;;;0.90;0.60;;;;;;;-148.56;100.00;61375.16;4910704;28;20039;-60
2022/02/02 02:18:07;;;;;;;2.42;0.50;;;;;;;-148.56;100.00;61375.16;4904266;28;20039;-60
2022/02/02 02:20:32;;;;;;;0.93;0.40;;;;;;;-148.56;100.00;61375.16;4908872;28;20105;-58
2022/02/02 02:22:58;;;;;;;2.42;0.88;;;;;;;-148.56;100.00;61375.16;4907490;28;20027;-60
2022/02/02 02:25:25;;;;;;;1.13;0.50;;;;;;;-148.56;100.00;61375.16;4910570;28;20042;-59
2022/02/02 02:27:50;;;;;;;1.15;0.70;;;;;;;-148.56;100.00;61375.16;4922367;28;20031;-61
2022/02/02 02:30:39;;;;;;;1.58;0.75;;;;;;;-148.56;100.00;61375.16;4907950;28;20042;-60
2022/02/02 02:58:05;;;;;;;1.55;0.70;;;;;;;-148.56;100.00;61375.16;4906670;28;20146;-59
2022/02/02 03:30:38;;;;;;;1.17;0.60;;;;;;;-148.56;100.00;61375.16;4932289;28;20046;-60
2022/02/02 03:34:40;;;;;;;2.60;0.57;;;;;;;-148.56;100.00;61375.16;4921447;28;20097;-60
2022/02/02 03:52:32;;;;;;;2.22;0.88;;;;;;;-148.56;100.00;61375.16;4908151;28;20511;-60
2022/02/02 04:03:05;;;;;;;2.00;0.88;;;;;;;-148.56;100.00;61375.16;4907654;28;20095;-59
2022/02/02 04:05:42;;;;;;;4.93;0.93;;;;;;;-148.56;100.00;61375.16;4905521;28;21009;-61
2022/02/02 04:08:22;;;;;;;1.33;0.63;;;;;;;-148.56;100.00;61375.16;4907659;28;20822;-60
2022/02/02 04:10:47;;;;;;;2.47;1.10;;;;;;;-148.56;100.00;61375.16;4907384;28;20046;-60
2022/02/02 04:13:37;;;;;;;1.67;0.68;;;;;;;-148.56;100.00;61375.16;4921178;28;20042;-60
2022/02/02 05:18:38;;;;;;;2.20;0.90;;;;;;;-148.56;100.00;61375.16;4910845;28;20192;-60
2022/02/02 05:51:18;;;;;;;2.70;0.77;;;;;;;-148.56;100.00;61375.16;4905151;28;20576;-61
2022/02/02 05:53:03;;;;;;;1.48;0.80;;;;;;;-148.56;100.00;61375.16;4898553;28;20051;-61
2022/02/02 05:55:40;;;;;;;3.50;0.82;;;;;;;-148.56;100.00;61375.16;4908570;28;20074;-62
2022/02/02 05:58:08;;;;;;;1.70;0.70;;;;;;;-148.56;100.00;61375.16;4910320;28;21248;-61
2022/02/02 06:00:37;;;;;;;3.38;1.20;;;;;;;-148.56;100.00;61375.16;4907669;28;20038;-62
2022/02/02 06:03:04;;;;;;;3.92;0.90;;;;;;;-148.56;100.00;61375.16;4906792;28;20038;-60
2022/02/02 06:05:30;;;;;;;2.42;0.93;;;;;;;-148.56;100.00;61375.16;4907591;28;20027;-60
2022/02/02 06:07:56;;;;;;;1.95;0.88;;;;;;;-148.56;100.00;61375.16;4912064;28;20293;-62
2022/02/02 06:10:23;;;;;;;2.05;0.82;;;;;;;-148.56;100.00;61375.16;4909791;28;20117;-60
2022/02/02 06:12:49;;;;;;;2.22;0.80;;;;;;;-148.56;100.00;61375.16;4908023;28;20118;-61
2022/02/02 06:15:17;;;;;;;5.57;0.95;;;;;;;-148.56;100.00;61375.16;4908385;28;20024;-60
2022/02/02 06:17:47;;;;;;;1.65;0.80;;;;;;;-148.56;100.00;61375.16;4912939;28;20621;-60
2022/02/02 06:20:12;;;;;;;1.98;0.77;;;;;;;-148.56;100.00;61375.16;4936292;28;20063;-60
2022/02/02 06:22:43;;;;;;;1.90;0.90;;;;;;;-148.56;100.00;61375.16;4934877;28;20660;-60
2022/02/02 06:25:37;;;;;;;2.90;1.00;;;;;;;-148.56;100.00;61375.16;4920850;29;20068;-60
2022/02/02 06:28:05;;;;;;;1.95;0.80;;;;;;;-148.56;100.00;61375.16;4932381;28;20043;-59
2022/02/02 06:30:30;;;;;;;2.97;1.20;;;;;;;-148.56;100.00;61375.16;4923530;29;20108;-60
2022/02/02 06:33:07;;;;;;;2.28;0.93;;;;;;;-148.56;100.00;61375.16;4939661;28;20031;-60
2022/02/02 06:35:32;;;;;;;2.72;1.20;;;;;;;-148.56;100.00;61375.16;4917091;29;20085;-60
2022/02/02 06:37:58;;;;;;;1.60;1.05;;;;;;;-148.56;100.00;61375.16;4920283;29;20586;-60
2022/02/02 06:40:24;;;;;;;2.75;1.10;;;;;;;-148.56;100.00;61375.16;4920339;28;20057;-60
2022/02/02 06:42:50;;;;;;;1.75;0.88;;;;;;;-148.56;100.00;61375.16;4918487;28;20461;-62
2022/02/02 06:45:16;;;;;;;2.25;0.80;;;;;;;-148.56;100.00;61375.16;4917494;29;20118;-61
2022/02/02 06:47:41;;;;;;;2.45;1.13;;;;;;;-148.56;100.00;61375.16;4922474;28;20035;-60
2022/02/02 06:50:16;;;;;;;3.42;1.40;;;;;;;-148.56;100.00;61375.16;4895828;28;20947;-57
2022/02/02 06:52:58;;;;;;;2.90;0.98;;;;;;;-148.56;100.00;61375.16;4923116;28;20019;-60
2022/02/02 06:55:32;;;;;;;1.65;0.70;;;;;;;-148.56;100.00;61375.16;4905618;28;20320;-61
2022/02/02 06:58:22;;;;;;;3.22;1.30;;;;;;;-148.56;100.00;61375.16;4906197;28;20028;-58
2022/02/02 07:03:52;;;;;;;1.92;1.05;;;;;;;-148.56;100.00;61375.16;4906493;28;20046;-61
2022/02/02 07:09:22;;;;;;;3.90;1.50;;;;;;;-148.56;100.00;61375.16;4869673;28;20902;-60
2022/02/02 07:15:16;;;;;;;2.20;1.08;;;;;;;-148.56;100.00;61375.16;4892508;28;20924;-62
2022/02/02 07:17:53;;;;;;;2.65;0.95;;;;;;;-148.56;100.00;61375.16;4907183;28;20039;-60
2022/02/02 07:20:30;;;;;;;3.55;0.98;;;;;;;-148.56;100.00;61375.16;4910248;28;20031;-61
2022/02/02 07:28:24;;;;;;;2.92;1.25;;;;;;;-148.56;100.00;61375.16;4908268;28;20074;-60
2022/02/02 07:33:39;;;;;;;2.13;0.82;;;;;;;-148.56;100.00;61375.16;4909366;28;20057;-61
2022/02/02 07:36:15;;;;;;;5.80;1.10;;;;;;;-148.56;100.00;61375.16;4905659;28;20824;-60
2022/02/02 07:38:49;;;;;;;4.93;1.42;;;;;;;-148.56;100.00;61375.16;4897426;28;20094;-61
2022/02/02 07:41:33;;;;;;;3.78;1.42;;;;;;;-148.56;100.00;61375.16;4902212;28;20110;-60
2022/02/02 07:44:14;;;;;;;3.38;1.45;;;;;;;-148.56;100.00;61375.16;4910696;28;20027;-59
2022/02/02 07:46:46;;;;;;;10.47;2.10;;;;;;;-148.56;100.00;61375.16;4906415;28;20035;-61
2022/02/02 07:49:11;;;;;;;8.02;2.20;;;;;;;-148.56;100.00;61375.16;4906204;28;20032;-60
2022/02/02 07:51:37;;;;;;;7.50;2.10;;;;;;;-148.56;100.00;61375.16;4904102;28;20046;-60
2022/02/02 07:54:07;;;;;;;10.70;2.50;;;;;;;-148.56;100.00;61375.16;4905092;28;20031;-60
2022/02/02 07:56:41;;;;;;;6.75;2.10;;;;;;;-148.56;100.00;61375.16;4912310;28;20062;-60
2022/02/02 07:59:20;;;;;;;12.27;2.40;;;;;;;-148.56;100.00;61375.16;4906257;28;20032;-60
2022/02/02 08:01:48;;;;;;;4.55;1.75;;;;;;;-148.56;100.00;61375.16;4907201;28;20125;-60
2022/02/02 08:04:14;;;;;;;9.43;2.58;;;;;;;-148.56;100.00;61375.16;4906327;28;20035;-61
2022/02/02 08:06:42;;;;;;;6.80;2.38;;;;;;;-148.56;100.00;61375.16;4892749;28;20087;-60
2022/02/02 08:09:11;;;;;;;11.15;2.53;;;;;;;-148.56;100.00;61375.16;4909954;28;20023;-58
2022/02/02 08:11:39;;;;;;;7.40;2.45;;;;;;;-148.56;100.00;61375.16;4910844;28;20117;-60
2022/02/02 08:14:04;;;;;;;9.65;2.60;;;;;;;-148.56;100.00;61375.16;4910242;28;20118;-60
2022/02/02 08:16:31;;;;;;;7.88;2.50;;;;;;;-148.56;100.00;61375.16;4906500;28;20027;-60
2022/02/02 08:18:56;;;;;;;6.47;2.30;;;;;;;-148.56;100.00;61375.16;4912601;28;20086;-61
2022/02/02 08:21:22;;;;;;;5.43;2.25;;;;;;;-148.56;100.00;61375.16;4908809;28;20044;-58
2022/02/02 08:23:48;;;;;;;5.93;2.03;;;;;;;-148.56;100.00;61375.16;4926089;28;20023;-60
2022/02/02 08:26:15;;;;;;;6.05;2.30;;;;;;;-148.56;100.00;61375.16;4909657;28;20034;-61
2022/02/02 08:28:42;;;;;;;8.93;2.58;;;;;;;-148.56;100.00;61375.16;4915962;28;20695;-61
2022/02/02 08:31:07;;;;;;;5.07;2.28;;;;;;;-148.56;100.00;61375.16;4923251;28;20027;-58
2022/02/02 08:33:46;;;;;;;4.32;2.30;;;;;;;-148.56;100.00;61375.16;4922472;28;20061;-61
2022/02/02 08:36:15;;;;;;;6.72;2.20;;;;;;;-148.56;100.00;61375.16;4909853;28;20041;-60
2022/02/02 08:41:36;;;;;;;7.10;2.67;;;;;;;-148.56;100.00;61375.16;4918741;28;20031;-60
2022/02/02 08:44:07;;;;;;;5.80;2.40;;;;;;;-148.56;100.00;61375.16;4912206;28;20039;-61
2022/02/02 08:46:35;;;;;;;9.05;2.45;;;;;;;-148.56;100.00;61375.16;4915576;28;21546;-59
2022/02/02 08:49:03;;;;;;;6.25;2.50;;;;;;;-148.56;100.00;61375.16;4908873;29;20038;-58
2022/02/02 08:51:33;;;;;;;13.95;2.80;;;;;;;-148.56;100.00;61375.16;4930319;28;20035;-59
2022/02/02 08:59:47;;;;;;;7.30;2.40;;;;;;;-148.56;100.00;61375.16;4911899;29;20051;-58
2022/02/02 09:02:17;;;;;;;5.82;2.25;;;;;;;-148.56;100.00;61375.16;4919735;28;20713;-60
2022/02/02 09:07:30;;;;;;;6.45;2.22;;;;;;;-148.56;100.00;61375.16;4928037;28;20042;-59
2022/02/02 09:25:58;;;;;;;15.90;4.47;;;;;;;-148.56;100.00;61375.16;4909474;28;20038;-58
2022/02/02 09:33:55;;;;;;;12.55;4.00;;;;;;;-148.56;100.00;61375.16;4912099;28;20045;-60
2022/02/02 09:36:23;;;;;;;17.00;4.63;;;;;;;-148.56;100.00;61375.16;4913940;28;20031;-59
2022/02/02 09:38:51;;;;;;;11.43;4.00;;;;;;;-148.56;100.00;61375.16;4927361;28;20142;-60
2022/02/02 09:41:36;;;;;;;11.13;3.83;;;;;;;-148.56;100.00;61375.16;4907711;28;20070;-61
2022/02/02 09:44:04;;;;;;;11.07;3.45;;;;;;;-148.56;100.00;61375.16;4911045;28;20034;-62
2022/02/02 09:46:46;;;;;;;9.55;3.67;;;;;;;-148.56;100.00;61375.16;4901821;28;20038;-61
2022/02/02 09:49:41;;;;;;;;;;;;;;;-148.56;100.00;61375.16;4916203;28;20043;-61
2022/02/02 09:52:18;;;;;;;14.57;3.53;;;;;;;-148.56;100.00;61375.16;4905623;28;19918;-61
2022/02/02 10:10:22;;;;;;;29.40;5.75;;;;;;;-148.56;100.00;61375.16;4906917;28;20490;-61
2022/02/02 10:15:25;;;;;;;22.90;4.63;;;;;;;-148.56;100.00;61375.16;4902329;28;20030;-61
2022/02/02 10:17:57;;;;;;;23.33;4.72;;;;;;;-148.56;100.00;61375.16;4901910;28;20035;-62
2022/02/02 10:20:24;;;;;;;20.00;4.63;;;;;;;-148.56;100.00;61375.16;4911926;28;21145;-64
2022/02/02 10:22:51;;;;;;;19.58;3.97;;;;;;;-148.56;100.00;61375.16;4906556;28;20146;-64
2022/02/02 10:25:32;;;;;;;21.27;4.82;;;;;;;-148.56;100.00;61375.16;4912027;28;20024;-64
2022/02/02 10:28:08;;;;;;;23.48;4.40;;;;;;;-148.56;100.00;61375.16;4912583;28;20035;-64
2022/02/02 10:30:33;;;;;;;27.17;4.43;;;;;;;-148.56;100.00;61375.16;4932763;28;20071;-65
2022/02/02 10:32:59;;;;;;;13.60;4.00;;;;;;;-148.56;100.00;61375.16;4916597;28;20031;-66
2022/02/02 10:35:46;;;;;;;17.30;3.90;;;;;;;-148.56;100.00;61375.16;4914558;28;20058;-64
2022/02/02 10:38:17;;;;;;;10.63;3.45;;;;;;;-148.56;100.00;61375.16;4919638;28;20055;-64
2022/02/02 10:43:41;;;;;;;11.90;3.42;;;;;;;-148.56;100.00;61375.16;4910782;28;20560;-63
2022/02/02 10:47:14;;;;;;;10.23;3.67;;;;;;;-148.56;100.00;61375.16;4915385;28;20043;-63
2022/02/02 10:49:45;;;;;;;11.30;3.70;;;;;;;-148.56;100.00;61375.16;4917081;28;20043;-64
2022/02/02 10:52:42;;;;;;;9.40;2.95;;;;;;;-148.56;100.00;61375.16;4920971;28;20036;-64
2022/02/02 10:58:06;;;;;;;9.45;3.35;;;;;;;-148.56;100.00;61375.16;4922215;28;20043;-61
2022/02/02 11:08:47;;;;;;;6.80;2.75;;;;;;;-148.56;100.00;61375.16;4907656;28;20145;-66
2022/02/02 11:11:12;;;;;;;8.45;2.92;;;;;;;-148.56;100.00;61375.16;4894411;28;20056;-65
2022/02/02 11:13:38;;;;;;;7.35;2.80;;;;;;;-148.56;100.00;61375.16;4920966;28;20043;-64
2022/02/02 11:16:04;;;;;;;13.45;2.95;;;;;;;-148.56;100.00;61375.16;4910253;28;20110;-63
2022/02/02 11:18:33;;;;;;;6.22;2.50;;;;;;;-148.56;100.00;61375.16;4907863;28;20074;-63
2022/02/02 11:21:10;;;;;;;13.60;4.25;;;;;;;-148.56;100.00;61375.16;4908472;28;20891;-67
2022/02/02 11:23:45;;;;;;;15.93;4.28;;;;;;;-148.56;100.00;61375.16;4904834;28;20036;-69
2022/02/02 11:26:11;;;;;;;10.48;3.38;;;;;;;-148.56;100.00;61375.16;4908826;28;20496;-65
2022/02/02 11:28:36;;;;;;;7.65;2.80;;;;;;;-148.56;100.00;61375.16;4916127;28;20123;-69
2022/02/02 11:31:18;;;;;;;13.88;3.60;;;;;;;-148.56;100.00;61375.16;4928899;28;20046;-67
2022/02/02 11:33:49;;;;;;;8.60;2.80;;;;;;;-148.56;100.00;61375.16;4921876;29;20035;-66
2022/02/02 11:36:39;;;;;;;7.70;2.70;;;;;;;-148.56;100.00;61375.16;4925195;29;20849;-69
2022/02/02 11:39:32;;;;;;;9.85;3.28;;;;;;;-148.56;100.00;61375.16;4917010;29;20055;-68
2022/02/02 11:42:09;;;;;;;8.63;2.83;;;;;;;-148.56;100.00;61375.16;4919050;29;20035;-65
2022/02/02 11:44:51;;;;;;;10.10;2.67;;;;;;;-148.56;100.00;61375.16;4919041;28;20028;-65
2022/02/02 11:47:25;;;;;;;8.80;2.53;;;;;;;-148.56;100.00;61375.16;4917822;28;20046;-65
2022/02/02 11:49:53;;;;;;;8.00;2.55;;;;;;;-148.56;100.00;61375.16;4920387;29;20042;-66
2022/02/02 11:52:35;;;;;;;8.10;2.50;;;;;;;-148.56;100.00;61375.16;4929200;28;20939;-67
2022/02/02 11:55:01;;;;;;;8.05;2.70;;;;;;;-148.56;100.00;61375.16;4917386;29;20046;-65
2022/02/02 11:57:35;;;;;;;6.40;2.60;;;;;;;-148.56;100.00;61375.16;4915503;28;20075;-66
2022/02/02 12:02:54;;;;;;;7.25;2.45;;;;;;;-148.56;100.00;61375.16;4908158;28;20032;-63
2022/02/02 12:09:08;;;;;;;8.95;2.42;;;;;;;26.09;26.72;96783.22;4987172;28;20050;-34
2022/02/02 12:19:01;;;;;;;6.78;2.58;;;;;;;26.18;26.67;96781.03;4964656;28;20026;-33
2022/02/02 12:58:13;;;;;;;195.77;57.42;;;;;;;26.02;28.36;96826.53;4966975;28;20049;-31
2022/02/02 13:00:51;;;;;;;288.55;85.20;;;;;;;26.04;28.68;96821.16;4984628;28;20031;-33
2022/02/02 13:03:17;;;;;;;339.60;103.75;;;;;;;26.07;28.90;96821.88;4976141;28;20508;-33
2022/02/02 13:05:43;;;;;;;335.95;108.18;;;;;;;26.10;28.90;96824.31;4971259;28;20038;-32
2022/02/02 13:08:09;;;;;;;375.52;123.80;;;;;;;26.17;29.25;96822.22;4967562;28;20026;-33
2022/02/02 13:10:35;;;;;;;451.88;188.05;;;;;;;26.23;29.19;96834.16;4967058;28;20061;-27
2022/02/02 13:13:18;;;;;;;477.52;236.73;;;;;;;26.30;29.34;96835.56;4968212;28;20041;-28
2022/02/02 13:18:19;;;;;;;505.38;251.88;;;;;;;26.44;29.16;96839.22;4952814;28;20035;-29
2022/02/02 13:23:27;;;;;;;480.08;245.88;;;;;;;26.50;29.07;96843.28;4957614;28;20069;-27
2022/02/02 13:25:56;;;;;;;472.73;240.10;;;;;;;26.52;29.15;96852.78;4960629;28;20027;-28
2022/02/02 13:28:46;;;;;;;458.08;230.02;;;;;;;26.54;29.42;96856.16;4962030;28;20051;-29
2022/02/02 13:31:39;;;;;;;438.83;213.13;;;;;;;26.54;29.44;96861.41;4966360;28;20481;-29
2022/02/02 13:53:50;;;;;;;324.75;137.82;;;;;;;26.27;28.37;96911.91;4960216;28;20411;-28
2022/02/02 14:01:27;;;;;;;292.95;123.22;;;;;;;26.15;28.95;96923.00;4956241;28;20034;-31
2022/02/02 14:04:38;;;;;;;296.65;116.32;;;;;;;26.09;29.04;96927.66;4959779;28;20041;-30
2022/02/02 14:06:53;;;;;;;269.73;112.05;;;;;;;26.06;28.99;96932.25;4961227;28;20042;-30
2022/02/02 14:09:39;;;;;;;249.25;107.80;;;;;;;26.02;29.44;96933.31;4965309;28;20034;-30
2022/02/02 14:31:15;;;;;;;185.55;76.22;;;;;;;25.80;29.74;96972.03;4958603;28;20042;-32
2022/02/02 14:33:42;;;;;;;178.75;76.70;;;;;;;25.77;29.87;96982.69;4946639;28;20082;-30
2022/02/02 14:36:10;;;;;;;166.82;71.93;;;;;;;25.77;29.83;96987.06;4962603;28;20029;-34
2022/02/02 14:38:42;;;;;;;171.18;69.10;;;;;;;25.76;29.79;96988.88;4965427;28;20049;-26
2022/02/02 14:41:26;;;;;;;146.25;64.82;;;;;;;25.74;29.80;96980.19;4958752;28;20597;-30
2022/02/02 14:46:41;;;;;;;147.35;62.08;;;;;;;25.71;30.02;96983.00;4963672;28;20037;-32
2022/02/02 14:49:22;;;;;;;145.77;59.67;;;;;;;25.72;30.03;96984.69;4965650;28;20033;-29
2022/02/02 15:24:41;;;;;;;73.80;33.60;;;;;;;25.74;29.83;96998.56;4953753;28;20048;-33
2022/02/02 15:27:22;;;;;;;69.53;34.55;;;;;;;25.75;29.91;97005.53;4957215;28;20042;-30
2022/02/02 15:32:16;;;;;;;68.30;30.77;;;;;;;25.77;29.81;97018.56;4958051;28;20657;-30
2022/02/02 15:34:46;;;;;;;55.65;29.35;;;;;;;25.78;29.81;97015.03;4962562;28;20027;-27
2022/02/02 15:40:09;;;;;;;56.22;28.15;;;;;;;25.78;29.88;97018.50;4953257;28;20026;-32
2022/02/02 15:58:27;;;;;;;40.58;21.88;;;;;;;25.80;29.98;97003.53;4953837;28;20049;-30
2022/02/02 16:03:31;;;;;;;40.90;20.05;;;;;;;25.81;30.08;96999.97;4950245;28;20084;-31
2022/02/02 16:06:02;;;;;;;40.20;19.83;;;;;;;25.83;29.97;97013.03;4951657;28;20019;-35
2022/02/02 16:08:28;;;;;;;38.78;19.77;;;;;;;25.83;30.08;97013.88;4959323;28;20118;-31
2022/02/02 16:13:32;;;;;;;34.28;18.02;;;;;;;25.86;30.06;97025.16;4952872;28;20563;-27
2022/02/02 16:16:03;;;;;;;38.15;17.95;;;;;;;25.87;30.07;97029.47;4953191;28;20407;-30
2022/02/02 16:32:25;;;;;;;28.15;15.55;;;;;;;25.91;30.08;97039.75;4954063;28;20038;-30
2022/02/02 16:37:16;;;;;;;27.15;14.43;;;;;;;25.91;29.96;97052.03;4950640;28;20292;-27
2022/02/02 16:39:52;;;;;;;26.73;14.52;;;;;;;25.90;30.01;97045.91;4948239;28;20022;-29
2022/02/02 16:45:02;;;;;;;29.17;12.95;;;;;;;25.91;30.21;97054.66;4951125;28;20041;-26
2022/02/02 16:47:28;;;;;;;25.80;13.32;;;;;;;25.91;29.96;97059.91;4952540;28;20394;-32
2022/02/02 16:49:53;;;;;;;24.35;13.05;;;;;;;25.92;30.13;97059.84;4979458;28;20046;-30
2022/02/02 16:52:23;;;;;;;20.60;12.15;;;;;;;25.93;30.00;97052.81;4953992;28;20069;-30
2022/02/02 16:54:48;;;;;;;26.38;12.93;;;;;;;25.94;30.14;97059.75;4953821;28;20508;-29
2022/02/02 17:32:33;;;;;;;18.00;10.52;;;;;;;25.96;29.98;97092.03;4962977;28;20062;-31
2022/02/02 17:37:53;;;;;;;16.90;9.60;;;;;;;25.96;30.17;97086.78;4940829;28;20093;-31
2022/02/02 17:43:22;;;;;;;17.65;9.63;;;;;;;25.98;30.25;97103.31;4956741;28;20023;-28
2022/02/02 18:20:37;;;;;;;6.72;3.38;;;;;;;24.91;27.46;97115.16;4955022;28;20037;-30
2022/02/02 18:25:37;;;;;;;6.82;3.20;;;;;;;24.95;27.75;97110.66;4954867;28;20301;-31
2022/02/02 18:28:29;;;;;;;4.95;3.05;;;;;;;24.99;28.08;97116.59;4950204;28;20335;-31
2022/02/02 18:33:58;;;;;;;5.85;3.30;;;;;;;25.10;28.22;97119.59;4938931;28;20043;-32
2022/02/02 18:56:04;;;;;;;5.05;2.83;;;;;;;25.40;28.17;97126.97;4946986;28;20030;-31
2022/02/02 19:00:36;;;;;;;5.88;3.08;;;;;;;25.46;28.43;97144.22;4944874;28;20050;-33
2022/02/02 19:39:56;;;;;;;4.07;2.30;;;;;;;25.69;28.61;97160.69;4938377;28;20936;-36
2022/02/02 20:03:49;;;;;;;3.20;2.15;;;;;;;25.78;29.15;97162.88;4950027;28;20065;-31
2022/02/02 20:07:06;;;;;;;3.90;2.30;;;;;;;25.78;28.95;97168.13;4944333;28;21587;-28
2022/02/02 20:11:29;;;;;;;4.50;2.17;;;;;;;25.80;29.18;97166.28;4945049;28;20090;-29
2022/02/02 20:13:55;;;;;;;3.47;2.10;;;;;;;25.80;29.06;97161.03;4949800;28;20031;-28
2022/02/02 20:16:20;;;;;;;3.17;1.75;;;;;;;25.81;29.09;97161.88;4946083;28;20113;-32
2022/02/02 20:18:48;;;;;;;5.65;2.28;;;;;;;25.82;29.02;97166.22;4948142;28;20411;-33
2022/02/02 20:21:17;;;;;;;4.10;2.17;;;;;;;25.83;29.02;97158.25;4946212;28;20026;-28
2022/02/02 20:23:46;;;;;;;3.40;2.20;;;;;;;25.83;29.14;97165.28;4946713;28;20106;-30
2022/02/02 20:26:15;;;;;;;2.83;1.85;;;;;;;25.82;29.20;97172.31;4952647;28;20027;-33
2022/02/02 20:28:40;;;;;;;2.22;1.63;;;;;;;25.81;29.22;97173.25;4955903;28;20038;-31
2022/02/02 20:31:06;;;;;;;2.67;2.08;;;;;;;25.83;29.17;97174.00;4953877;28;20066;-30
2022/02/02 20:33:31;;;;;;;7.43;1.88;;;;;;;25.82;29.10;97169.69;4949222;28;21078;-30
2022/02/02 20:35:56;;;;;;;4.78;2.05;;;;;;;25.83;29.15;97176.63;4952802;28;20496;-29
2022/02/02 20:38:22;;;;;;;4.68;2.00;;;;;;;25.85;29.15;97175.72;4959954;28;20089;-33
2022/02/02 20:40:47;;;;;;;3.13;1.70;;;;;;;25.86;29.10;97174.81;4955645;28;20653;-32
2022/02/02 20:43:25;;;;;;;2.30;1.55;;;;;;;25.86;29.06;97174.81;4953892;28;20038;-29
2022/02/02 21:05:08;;;;;;;3.80;1.73;;;;;;;25.88;29.24;97159.81;4952365;28;20776;-33
2022/02/02 21:10:24;;;;;;;3.92;1.90;;;;;;;25.88;29.29;97163.28;4946420;28;20045;-31
2022/02/02 21:15:36;;;;;;;2.47;1.70;;;;;;;25.89;29.24;97174.66;4955437;28;20042;-34
2022/02/02 21:18:09;;;;;;;2.90;1.55;;;;;;;25.90;29.29;97168.47;4956708;28;20027;-32
2022/02/02 21:20:42;;;;;;;2.35;1.63;;;;;;;25.90;29.49;97171.09;4958674;28;20030;-44
2022/02/02 21:23:24;;;;;;;3.28;1.70;;;;;;;25.90;29.46;97171.94;4953846;28;21007;-29
2022/02/02 21:28:35;;;;;;;2.42;1.48;;;;;;;25.91;29.38;97180.69;4961039;28;20691;-32
2022/02/02 21:31:00;;;;;;;2.83;1.75;;;;;;;25.91;29.49;97167.56;4954421;28;20066;-32
2022/02/02 21:33:26;;;;;;;1.95;1.50;;;;;;;25.91;29.50;97178.06;4954355;28;20102;-29
2022/02/02 21:35:53;;;;;;;2.28;1.50;;;;;;;25.91;29.42;97175.44;4958227;28;20034;-30
2022/02/02 21:40:52;;;;;;;3.67;1.67;;;;;;;25.92;29.42;97171.88;4960320;28;20433;-35
2022/02/02 21:43:18;;;;;;;2.10;1.58;;;;;;;25.93;29.47;97176.22;4957185;28;20507;-29
2022/02/02 21:45:44;;;;;;;2.15;1.40;;;;;;;25.92;29.44;97172.72;4962176;28;20022;-34
2022/02/02 21:48:09;;;;;;;1.88;1.38;;;;;;;25.93;29.54;97170.97;4958735;28;20037;-28
2022/02/02 21:53:19;;;;;;;5.05;1.38;;;;;;;25.93;29.66;97170.97;4952787;28;20117;-28
2022/02/02 21:55:44;;;;;;;3.20;1.63;;;;;;;25.93;29.59;97165.72;4963321;28;20027;-31
2022/02/02 21:58:10;;;;;;;2.47;1.35;;;;;;;25.95;29.51;97169.09;4947029;28;20042;-28
2022/02/02 22:00:36;;;;;;;2.22;1.50;;;;;;;25.94;29.64;97164.78;4949476;28;20023;-31
2022/02/02 22:03:01;;;;;;;2.15;1.60;;;;;;;25.94;29.55;97159.53;4958324;28;20525;-30
2022/02/02 22:05:27;;;;;;;2.10;1.50;;;;;;;25.95;29.61;97158.59;4941821;28;20145;-29
2022/02/02 22:07:52;;;;;;;2.58;1.50;;;;;;;25.95;29.53;97163.84;4939430;28;20046;-30
2022/02/02 22:10:19;;;;;;;1.77;1.40;;;;;;;25.95;29.91;97166.47;4934839;28;20038;-27
2022/02/02 22:12:44;;;;;;;2.47;1.60;;;;;;;25.95;29.60;97175.22;4935739;28;20034;-30
2022/02/02 22:15:15;;;;;;;2.70;1.42;;;;;;;25.96;29.54;97171.66;4937295;28;20066;-34
2022/02/02 22:17:41;;;;;;;2.70;1.33;;;;;;;25.96;29.70;97176.91;4936010;28;20653;-27
2022/02/02 22:20:10;;;;;;;3.08;1.30;;;;;;;25.96;29.62;97181.31;4936754;28;20027;-30
2022/02/02 22:22:35;;;;;;;2.10;1.23;;;;;;;25.96;29.74;97176.06;4972900;28;20684;-30
2022/02/02 22:25:01;;;;;;;2.13;1.25;;;;;;;25.95;29.74;97184.88;4941791;28;20044;-38
2022/02/02 22:27:26;;;;;;;2.35;1.40;;;;;;;25.96;29.86;97179.53;4947998;28;20659;-30
2022/02/02 22:29:52;;;;;;;1.60;1.35;;;;;;;25.97;29.81;97183.00;4944425;28;20035;-30
2022/02/02 22:32:17;;;;;;;3.38;1.40;;;;;;;25.97;29.66;97185.63;4952665;28;20035;-31